Aérodrome :
LOGIN :

S'inscrire | Disclaimer

   EN    FR    IT 

 










Légende :    VFR   VFR Marginal   IFR   IFR Intensif   IFR Très Intensif
Visi : 
Plafond : 
>= 8 km
>= 3000ft
5 à 8 km
1000 à 3000 ft
1500m à 5 km
500 à 1000 ft
800 à 1500m
200 à 500 ft
< 800m
< 200 ft
Symboles :   Orages  Brouillard  Fortes neiges  Fortes précipitations  Vent > 20 kt
SIGMETs :   Divers  Orages  Givrage  Turbulence  Onde Orograph.  Cendres Volcan.






- Altitude de l'aérodrome : 157 ft
- Code IATA : SXF


EDDB - Berlin Schönefeld

DERNIER METAR :
  • 260550Z AUTO VRB02KT CAVOK 18/14 Q1019 NOSIG

METARs EXPIRÉS :
  • 260520Z AUTO VRB01KT CAVOK 17/14 Q1018 NOSIG
  • 260450Z AUTO VRB01KT CAVOK 16/13 Q1018 NOSIG
  • 260420Z AUTO 24001KT 8000 NCD 14/14 Q1018 NOSIG
  • 260350Z AUTO 00000KT 0650 0300 R07L/0400D R07R/1100U FG NCD 12/12 Q1018 TEMPO 1000 BCFG
  • 260320Z AUTO VRB01KT 0600 0450 R07L/0500N R07R/1000U FG NCD 12/12 Q1018 TEMPO 1000 BCFG
  • 260250Z AUTO 23003KT 1100 0550 R25R/0700D R25L/P2000N BCFG NCD 13/12 Q1018 TEMPO 1200 BCFG
  • 260220Z AUTO 24002KT 2200 0550 R25R/P2000N R25L/1900N BCFG NSC 13/12 Q1018 TEMPO 3000 BR
  • 260150Z AUTO 26002KT 8000 3200 BR NSC 13/13 Q1018 TEMPO 4000 BR
  • 260120Z AUTO 22005KT CAVOK 13/13 Q1018 NOSIG

TAF TAF EDDB
Valide du 26 à 06h jusqu'au 27 à 06h UTC


260500Z 2606/2706 VRB02KT CAVOK
BECMG 2606/2608 16006KT
TEMPO 2612/2619 4000 SHRA SCT035CB
PROB30
TEMPO 2613/2618 18015G25KT 2800 TSRA BKN030CB



MET'MAP, la Météo Aéronautique d'un coup d'oeil ! - Copyright ORBIFLY Décembre 2007 - Disclaimer

ORBIFLY MET'MAP TEAM :

Programmation & Développement : Alexandra Zaïnal
Sur une idée originale de : Baudouin d'Aumeries
Soutien technique & logistique : Manuel Goepfert
Assistance : Marc-Olivier Méhu




SOURCES & CREDITS :

   NOAA